sensor_id;sensor_type;location;lat;lon;timestamp;pressure;altitude;pressure_sealevel;temperature;humidity
60170;BME280;46042;49.444;6.862;2023-02-04T00:02:00;100131.34;;;6.37;100.00
60170;BME280;46042;49.444;6.862;2023-02-04T00:04:27;100127.06;;;6.34;100.00
60170;BME280;46042;49.444;6.862;2023-02-04T00:06:54;100124.34;;;6.37;100.00
60170;BME280;46042;49.444;6.862;2023-02-04T00:09:20;100125.19;;;6.38;100.00
60170;BME280;46042;49.444;6.862;2023-02-04T00:11:47;100119.13;;;6.37;100.00
60170;BME280;46042;49.444;6.862;2023-02-04T00:14:13;100126.06;;;6.38;100.00
60170;BME280;46042;49.444;6.862;2023-02-04T00:16:40;100126.16;;;6.35;100.00
60170;BME280;46042;49.444;6.862;2023-02-04T00:19:07;100122.66;;;6.35;100.00
60170;BME280;46042;49.444;6.862;2023-02-04T00:21:33;100120.03;;;6.36;100.00
60170;BME280;46042;49.444;6.862;2023-02-04T00:24:00;100119.97;;;6.38;100.00
60170;BME280;46042;49.444;6.862;2023-02-04T00:26:26;100127.81;;;6.38;100.00
60170;BME280;46042;49.444;6.862;2023-02-04T00:28:53;100131.25;;;6.40;100.00
60170;BME280;46042;49.444;6.862;2023-02-04T00:31:20;100122.56;;;6.39;100.00
60170;BME280;46042;49.444;6.862;2023-02-04T00:33:46;100126.16;;;6.35;100.00
60170;BME280;46042;49.444;6.862;2023-02-04T00:36:13;100124.34;;;6.37;100.00
60170;BME280;46042;49.444;6.862;2023-02-04T00:38:40;100118.16;;;6.40;100.00
60170;BME280;46042;49.444;6.862;2023-02-04T00:41:07;100125.19;;;6.39;100.00
60170;BME280;46042;49.444;6.862;2023-02-04T00:43:33;100126.09;;;6.37;100.00
60170;BME280;46042;49.444;6.862;2023-02-04T00:46:00;100122.59;;;6.38;100.00
60170;BME280;46042;49.444;6.862;2023-02-04T00:48:27;100122.56;;;6.39;100.00
60170;BME280;46042;49.444;6.862;2023-02-04T00:50:54;100133.06;;;6.38;100.00
60170;BME280;46042;49.444;6.862;2023-02-04T00:53:20;100124.28;;;6.40;100.00
60170;BME280;46042;49.444;6.862;2023-02-04T00:55:47;100117.34;;;6.38;100.00
60170;BME280;46042;49.444;6.862;2023-02-04T00:58:14;100117.34;;;6.38;100.00
60170;BME280;46042;49.444;6.862;2023-02-04T01:00:40;100108.66;;;6.37;100.00
60170;BME280;46042;49.444;6.862;2023-02-04T01:03:07;100107.78;;;6.37;100.00
60170;BME280;46042;49.444;6.862;2023-02-04T01:05:34;100100.81;;;6.36;100.00
60170;BME280;46042;49.444;6.862;2023-02-04T01:08:01;100107.84;;;6.35;100.00
60170;BME280;46042;49.444;6.862;2023-02-04T01:10:28;100108.69;;;6.36;100.00
60170;BME280;46042;49.444;6.862;2023-02-04T01:12:55;100107.75;;;6.38;100.00
60170;BME280;46042;49.444;6.862;2023-02-04T01:15:22;100103.41;;;6.37;100.00
60170;BME280;46042;49.444;6.862;2023-02-04T01:17:48;100107.75;;;6.38;100.00
60170;BME280;46042;49.444;6.862;2023-02-04T01:20:15;100112.13;;;6.38;100.00
60170;BME280;46042;49.444;6.862;2023-02-04T01:22:42;100106.03;;;6.37;100.00
60170;BME280;46042;49.444;6.862;2023-02-04T01:25:09;100115.56;;;6.40;100.00
60170;BME280;46042;49.444;6.862;2023-02-04T01:27:35;100121.66;;;6.40;100.00
60170;BME280;46042;49.444;6.862;2023-02-04T01:30:04;100118.13;;;6.43;100.00
60170;BME280;46042;49.444;6.862;2023-02-04T01:32:31;100112.09;;;6.39;100.00
60170;BME280;46042;49.444;6.862;2023-02-04T01:34:58;100104.25;;;6.39;100.00
60170;BME280;46042;49.444;6.862;2023-02-04T01:37:24;100099.03;;;6.38;100.00
60170;BME280;46042;49.444;6.862;2023-02-04T01:39:51;100108.66;;;6.37;100.00
60170;BME280;46042;49.444;6.862;2023-02-04T01:42:17;100112.13;;;6.38;100.00
60170;BME280;46042;49.444;6.862;2023-02-04T01:44:44;100116.53;;;6.36;100.00
60170;BME280;46042;49.444;6.862;2023-02-04T01:47:11;100110.38;;;6.38;100.00
60170;BME280;46042;49.444;6.862;2023-02-04T01:49:38;100107.69;;;6.40;100.00
60170;BME280;46042;49.444;6.862;2023-02-04T01:52:05;100114.72;;;6.39;100.00
60170;BME280;46042;49.444;6.862;2023-02-04T01:54:32;100113.06;;;6.35;100.00
60170;BME280;46042;49.444;6.862;2023-02-04T01:56:58;100124.31;;;6.39;100.00
60170;BME280;46042;49.444;6.862;2023-02-04T01:59:25;100117.34;;;6.38;100.00
60170;BME280;46042;49.444;6.862;2023-02-04T02:01:53;100120.03;;;6.36;100.00
60170;BME280;46042;49.444;6.862;2023-02-04T02:04:30;100116.50;;;6.37;100.00
60170;BME280;46042;49.444;6.862;2023-02-04T02:06:59;100108.59;;;6.39;100.00
60170;BME280;46042;49.444;6.862;2023-02-04T02:09:28;100114.72;;;6.39;100.00
60170;BME280;46042;49.444;6.862;2023-02-04T02:11:56;100111.16;;;6.42;100.00
60170;BME280;46042;49.444;6.862;2023-02-04T02:14:23;100100.72;;;6.40;100.00
60170;BME280;46042;49.444;6.862;2023-02-04T02:16:49;100102.44;;;6.42;100.00
60170;BME280;46042;49.444;6.862;2023-02-04T02:19:26;100090.28;;;6.39;100.00
60170;BME280;46042;49.444;6.862;2023-02-04T02:24:46;100087.00;;;6.31;100.00
60170;BME280;46042;49.444;6.862;2023-02-04T02:27:12;100091.34;;;6.32;100.00
60170;BME280;46042;49.444;6.862;2023-02-04T02:29:41;100087.09;;;6.28;100.00
60170;BME280;46042;49.444;6.862;2023-02-04T02:32:09;100088.88;;;6.25;100.00
60170;BME280;46042;49.444;6.862;2023-02-04T02:34:37;100081.84;;;6.28;100.00
60170;BME280;46042;49.444;6.862;2023-02-04T02:37:05;100091.34;;;6.32;100.00
60170;BME280;46042;49.444;6.862;2023-02-04T02:39:36;100096.53;;;6.33;100.00
60170;BME280;46042;49.444;6.862;2023-02-04T02:42:04;100100.00;;;6.34;100.00
60170;BME280;46042;49.444;6.862;2023-02-04T02:44:34;100100.81;;;6.36;100.00
60170;BME280;46042;49.444;6.862;2023-02-04T02:47:00;100100.94;;;6.31;100.00
60170;BME280;46042;49.444;6.862;2023-02-04T02:49:29;100103.53;;;6.33;100.00
60170;BME280;46042;49.444;6.862;2023-02-04T02:51:57;100103.44;;;6.36;100.00
60170;BME280;46042;49.444;6.862;2023-02-04T02:54:27;100105.22;;;6.35;100.00
60170;BME280;46042;49.444;6.862;2023-02-04T02:56:55;100101.63;;;6.39;100.00
60170;BME280;46042;49.444;6.862;2023-02-04T02:59:23;100099.00;;;6.39;100.00
60170;BME280;46042;49.444;6.862;2023-02-04T03:01:56;100099.78;;;6.43;100.00
60170;BME280;46042;49.444;6.862;2023-02-04T03:04:24;100102.31;;;6.46;100.00
60170;BME280;46042;49.444;6.862;2023-02-04T03:06:52;100103.16;;;6.47;100.00
60170;BME280;46042;49.444;6.862;2023-02-04T03:09:19;100101.38;;;6.49;100.00
60170;BME280;46042;49.444;6.862;2023-02-04T03:11:47;100111.00;;;6.48;100.00
60170;BME280;46042;49.444;6.862;2023-02-04T03:14:14;100117.16;;;6.46;100.00
60170;BME280;46042;49.444;6.862;2023-02-04T03:16:40;100121.41;;;6.50;100.00
60170;BME280;46042;49.444;6.862;2023-02-04T03:19:10;100120.50;;;6.52;100.00
60170;BME280;46042;49.444;6.862;2023-02-04T03:21:38;100114.41;;;6.52;100.00
60170;BME280;46042;49.444;6.862;2023-02-04T03:24:05;100123.91;;;6.54;100.00
60170;BME280;46042;49.444;6.862;2023-02-04T03:26:32;100133.47;;;6.57;100.00
60170;BME280;46042;49.444;6.862;2023-02-04T03:28:59;100132.56;;;6.58;100.00
60170;BME280;46042;49.444;6.862;2023-02-04T03:31:26;100136.03;;;6.59;100.00
60170;BME280;46042;49.444;6.862;2023-02-04T03:33:53;100147.47;;;6.56;100.00
60170;BME280;46042;49.444;6.862;2023-02-04T03:36:19;100150.97;;;6.55;100.00
60170;BME280;46042;49.444;6.862;2023-02-04T03:38:47;100164.97;;;6.54;100.00
60170;BME280;46042;49.444;6.862;2023-02-04T03:41:13;100173.84;;;6.47;100.00
60170;BME280;46042;49.444;6.862;2023-02-04T03:43:40;100181.72;;;6.47;100.00
60170;BME280;46042;49.444;6.862;2023-02-04T03:46:06;100184.41;;;6.44;100.00
60170;BME280;46042;49.444;6.862;2023-02-04T03:48:33;100178.38;;;6.40;100.00
60170;BME280;46042;49.444;6.862;2023-02-04T03:51:00;100185.38;;;6.39;100.00
60170;BME280;46042;49.444;6.862;2023-02-04T03:53:26;100186.31;;;6.37;100.00
60170;BME280;46042;49.444;6.862;2023-02-04T03:55:53;100194.22;;;6.35;100.00
60170;BME280;46042;49.444;6.862;2023-02-04T03:58:20;100200.34;;;6.34;100.00
60170;BME280;46042;49.444;6.862;2023-02-04T04:00:46;100202.09;;;6.34;100.00
60170;BME280;46042;49.444;6.862;2023-02-04T04:03:13;100209.94;;;6.34;100.00
60170;BME280;46042;49.444;6.862;2023-02-04T04:05:40;100206.44;;;6.33;100.00
60170;BME280;46042;49.444;6.862;2023-02-04T04:08:06;100216.06;;;6.33;100.00
60170;BME280;46042;49.444;6.862;2023-02-04T04:10:33;100206.41;;;6.35;100.00
60170;BME280;46042;49.444;6.862;2023-02-04T04:13:00;100204.78;;;6.31;100.00
60170;BME280;46042;49.444;6.862;2023-02-04T04:15:26;100203.25;;;6.22;100.00
60170;BME280;46042;49.444;6.862;2023-02-04T04:17:53;100198.97;;;6.18;100.00
60170;BME280;46042;49.444;6.862;2023-02-04T04:20:20;100203.25;;;6.22;100.00
60170;BME280;46042;49.444;6.862;2023-02-04T04:22:51;100208.31;;;6.28;100.00
60170;BME280;46042;49.444;6.862;2023-02-04T04:25:17;100200.53;;;6.26;100.00
60170;BME280;46042;49.444;6.862;2023-02-04T04:27:44;100201.28;;;6.30;100.00
60170;BME280;46042;49.444;6.862;2023-02-04T04:30:11;100217.03;;;6.29;100.00
60170;BME280;46042;49.444;6.862;2023-02-04T04:32:37;100217.06;;;6.27;100.00
60170;BME280;46042;49.444;6.862;2023-02-04T04:35:04;100215.34;;;6.26;100.00
60170;BME280;46042;49.444;6.862;2023-02-04T04:37:31;100225.78;;;6.28;100.00
60170;BME280;46042;49.444;6.862;2023-02-04T04:40:00;100224.91;;;6.27;100.00
60170;BME280;46042;49.444;6.862;2023-02-04T04:42:28;100224.91;;;6.27;100.00
60170;BME280;46042;49.444;6.862;2023-02-04T04:44:54;100225.09;;;6.19;100.00
60170;BME280;46042;49.444;6.862;2023-02-04T04:47:21;100222.41;;;6.22;100.00
60170;BME280;46042;49.444;6.862;2023-02-04T04:49:48;100233.00;;;6.16;100.00
60170;BME280;46042;49.444;6.862;2023-02-04T04:52:14;100237.38;;;6.16;100.00
60170;BME280;46042;49.444;6.862;2023-02-04T04:54:41;100236.50;;;6.17;100.00
60170;BME280;46042;49.444;6.862;2023-02-04T04:57:07;100233.25;;;6.05;100.00
60170;BME280;46042;49.444;6.862;2023-02-04T04:59:34;100239.41;;;6.03;100.00
60170;BME280;46042;49.444;6.862;2023-02-04T05:02:01;100245.59;;;5.97;100.00
60170;BME280;46042;49.444;6.862;2023-02-04T05:04:27;100250.88;;;5.95;100.00
60170;BME280;46042;49.444;6.862;2023-02-04T05:06:54;100250.00;;;5.95;100.00
60170;BME280;46042;49.444;6.862;2023-02-04T05:09:20;100252.66;;;5.93;100.00
60170;BME280;46042;49.444;6.862;2023-02-04T05:11:47;100248.34;;;5.91;100.00
60170;BME280;46042;49.444;6.862;2023-02-04T05:14:13;100244.06;;;5.87;100.00
60170;BME280;46042;49.444;6.862;2023-02-04T05:16:40;100247.53;;;5.87;100.00
60170;BME280;46042;49.444;6.862;2023-02-04T05:19:07;100248.50;;;5.81;100.00
60170;BME280;46042;49.444;6.862;2023-02-04T05:21:33;100245.94;;;5.80;100.00
60170;BME280;46042;49.444;6.862;2023-02-04T05:24:00;100255.66;;;5.73;100.00
60170;BME280;46042;49.444;6.862;2023-02-04T05:26:26;100252.22;;;5.71;100.00
60170;BME280;46042;49.444;6.862;2023-02-04T05:28:56;100255.75;;;5.70;100.00
60170;BME280;46042;49.444;6.862;2023-02-04T05:31:23;100255.81;;;5.67;100.00
60170;BME280;46042;49.444;6.862;2023-02-04T05:33:49;100262.84;;;5.62;100.00
60170;BME280;46042;49.444;6.862;2023-02-04T05:36:16;100261.19;;;5.59;100.00
60170;BME280;46042;49.444;6.862;2023-02-04T05:38:43;100266.56;;;5.50;100.00
60170;BME280;46042;49.444;6.862;2023-02-04T05:41:09;100265.81;;;5.45;100.00
60170;BME280;46042;49.444;6.862;2023-02-04T05:43:36;100269.31;;;5.42;100.00
60170;BME280;46042;49.444;6.862;2023-02-04T05:46:03;100265.91;;;5.38;100.00
60170;BME280;46042;49.444;6.862;2023-02-04T05:48:29;100271.22;;;5.34;100.00
60170;BME280;46042;49.444;6.862;2023-02-04T05:50:56;100271.28;;;5.31;100.00
60170;BME280;46042;49.444;6.862;2023-02-04T05:53:23;100266.09;;;5.27;100.00
60170;BME280;46042;49.444;6.862;2023-02-04T05:55:51;100274.03;;;5.23;100.00
60170;BME280;46042;49.444;6.862;2023-02-04T05:58:18;100281.88;;;5.23;100.00
60170;BME280;46042;49.444;6.862;2023-02-04T06:00:45;100296.75;;;5.18;100.00
60170;BME280;46042;49.444;6.862;2023-02-04T06:03:11;100297.69;;;5.13;100.00
60170;BME280;46042;49.444;6.862;2023-02-04T06:05:39;100296.81;;;5.15;100.00
60170;BME280;46042;49.444;6.862;2023-02-04T06:08:06;100300.31;;;5.12;100.00
60170;BME280;46042;49.444;6.862;2023-02-04T06:10:33;100301.19;;;5.12;100.00
60170;BME280;46042;49.444;6.862;2023-02-04T06:12:59;100306.47;;;5.09;100.00
60170;BME280;46042;49.444;6.862;2023-02-04T06:15:26;100310.81;;;5.09;100.00
60170;BME280;46042;49.444;6.862;2023-02-04T06:17:53;100316.09;;;5.06;100.00
60170;BME280;46042;49.444;6.862;2023-02-04T06:20:19;100320.50;;;5.02;100.00
60170;BME280;46042;49.444;6.862;2023-02-04T06:22:46;100326.63;;;5.01;100.00
60170;BME280;46042;49.444;6.862;2023-02-04T06:25:17;100320.56;;;4.99;100.00
60170;BME280;46042;49.444;6.862;2023-02-04T06:27:44;100323.16;;;5.01;100.00
60170;BME280;46042;49.444;6.862;2023-02-04T06:30:11;100316.13;;;5.04;100.00
60170;BME280;46042;49.444;6.862;2023-02-04T06:32:38;100315.28;;;5.02;100.00
60170;BME280;46042;49.444;6.862;2023-02-04T06:35:05;100311.00;;;4.98;100.00
60170;BME280;46042;49.444;6.862;2023-02-04T06:37:32;100316.28;;;4.96;100.00
60170;BME280;46042;49.444;6.862;2023-02-04T06:39:58;100323.22;;;4.96;100.00
60170;BME280;46042;49.444;6.862;2023-02-04T06:42:25;100325.84;;;4.94;100.00
60170;BME280;46042;49.444;6.862;2023-02-04T06:44:52;100332.00;;;4.90;100.00
60170;BME280;46042;49.444;6.862;2023-02-04T06:47:19;100339.91;;;4.86;100.00
60170;BME280;46042;49.444;6.862;2023-02-04T06:49:46;100333.06;;;4.80;100.00
60170;BME280;46042;49.444;6.862;2023-02-04T06:52:12;100342.72;;;4.72;100.00
60170;BME280;46042;49.444;6.862;2023-02-04T06:54:39;100348.09;;;4.62;100.00
60170;BME280;46042;49.444;6.862;2023-02-04T06:57:05;100355.94;;;4.61;100.00
60170;BME280;46042;49.444;6.862;2023-02-04T06:59:33;100363.78;;;4.59;100.00
60170;BME280;46042;49.444;6.862;2023-02-04T07:02:01;100363.81;;;4.58;100.00
60170;BME280;46042;49.444;6.862;2023-02-04T07:04:28;100364.72;;;4.53;100.00
60170;BME280;46042;49.444;6.862;2023-02-04T07:06:54;100365.69;;;4.48;100.00
60170;BME280;46042;49.444;6.862;2023-02-04T07:09:21;100367.47;;;4.46;100.00
60170;BME280;46042;49.444;6.862;2023-02-04T07:11:47;100379.63;;;4.44;100.00
60170;BME280;46042;49.444;6.862;2023-02-04T07:14:14;100380.59;;;4.38;100.00
60170;BME280;46042;49.444;6.862;2023-02-04T07:16:41;100385.06;;;4.26;100.00
60170;BME280;46042;49.444;6.862;2023-02-04T07:19:07;100386.88;;;4.20;100.00
60170;BME280;46042;49.444;6.862;2023-02-04T07:21:34;100384.28;;;4.18;100.00
60170;BME280;46042;49.444;6.862;2023-02-04T07:24:01;100391.28;;;4.16;100.00
60170;BME280;46042;49.444;6.862;2023-02-04T07:26:27;100393.91;;;4.13;100.00
60170;BME280;46042;49.444;6.862;2023-02-04T07:28:54;100396.56;;;4.10;100.00
60170;BME280;46042;49.444;6.862;2023-02-04T07:31:20;100396.59;;;4.05;100.00
60170;BME280;46042;49.444;6.862;2023-02-04T07:33:47;100405.38;;;3.98;100.00
60170;BME280;46042;49.444;6.862;2023-02-04T07:36:14;100410.66;;;3.93;100.00
60170;BME280;46042;49.444;6.862;2023-02-04T07:38:40;100412.44;;;3.88;100.00
60170;BME280;46042;49.444;6.862;2023-02-04T07:41:07;100418.53;;;3.84;100.00
60170;BME280;46042;49.444;6.862;2023-02-04T07:43:34;100424.66;;;3.81;100.00
60170;BME280;46042;49.444;6.862;2023-02-04T07:46:01;100431.59;;;3.82;100.00
60170;BME280;46042;49.444;6.862;2023-02-04T07:48:27;100428.16;;;3.79;100.00
60170;BME280;46042;49.444;6.862;2023-02-04T07:50:54;100434.31;;;3.70;100.00
60170;BME280;46042;49.444;6.862;2023-02-04T07:53:20;100437.00;;;3.64;100.00
60170;BME280;46042;49.444;6.862;2023-02-04T07:55:47;100433.53;;;3.60;100.00
60170;BME280;46042;49.444;6.862;2023-02-04T07:58:14;100437.03;;;3.58;100.00
60170;BME280;46042;49.444;6.862;2023-02-04T08:00:40;100435.28;;;3.56;100.00
60170;BME280;46042;49.444;6.862;2023-02-04T08:03:07;100442.22;;;3.58;100.00
60170;BME280;46042;49.444;6.862;2023-02-04T08:05:33;100444.03;;;3.54;100.00
60170;BME280;46042;49.444;6.862;2023-02-04T08:08:00;100449.25;;;3.49;100.00
60170;BME280;46042;49.444;6.862;2023-02-04T08:10:27;100453.63;;;3.46;100.00
60170;BME280;46042;49.444;6.862;2023-02-04T08:12:54;100450.16;;;3.44;100.00
60170;BME280;46042;49.444;6.862;2023-02-04T08:15:20;100454.53;;;3.43;100.00
60170;BME280;46042;49.444;6.862;2023-02-04T08:17:47;100454.50;;;3.46;100.00
60170;BME280;46042;49.444;6.862;2023-02-04T08:20:13;100459.72;;;3.45;100.00
60170;BME280;46042;49.444;6.862;2023-02-04T08:22:40;100456.22;;;3.46;100.00
60170;BME280;46042;49.444;6.862;2023-02-04T08:25:06;100457.94;;;3.47;100.00
60170;BME280;46042;49.444;6.862;2023-02-04T08:27:33;100459.69;;;3.48;100.00
60170;BME280;46042;49.444;6.862;2023-02-04T08:30:00;100457.09;;;3.46;100.00
60170;BME280;46042;49.444;6.862;2023-02-04T08:32:26;100462.25;;;3.51;100.00
60170;BME280;46042;49.444;6.862;2023-02-04T08:34:54;100468.34;;;3.51;100.00
60170;BME280;46042;49.444;6.862;2023-02-04T08:37:21;100471.84;;;3.50;100.00
60170;BME280;46042;49.444;6.862;2023-02-04T08:39:49;100473.56;;;3.51;100.00
60170;BME280;46042;49.444;6.862;2023-02-04T08:42:15;100477.03;;;3.52;100.00
60170;BME280;46042;49.444;6.862;2023-02-04T08:44:42;100477.03;;;3.52;100.00
60170;BME280;46042;49.444;6.862;2023-02-04T08:47:09;100471.81;;;3.55;100.00
60170;BME280;46042;49.444;6.862;2023-02-04T08:49:36;100474.34;;;3.61;100.00
60170;BME280;46042;49.444;6.862;2023-02-04T08:52:03;100479.53;;;3.64;100.00
60170;BME280;46042;49.444;6.862;2023-02-04T08:54:31;100489.09;;;3.67;100.00
60170;BME280;46042;49.444;6.862;2023-02-04T08:56:58;100489.84;;;3.80;100.00
60170;BME280;46042;49.444;6.862;2023-02-04T08:59:25;100493.22;;;3.91;100.00
60170;BME280;46042;49.444;6.862;2023-02-04T09:01:52;100500.00;;;4.09;100.00
60170;BME280;46042;49.444;6.862;2023-02-04T09:04:19;100503.31;;;4.30;100.00
60170;BME280;46042;49.444;6.862;2023-02-04T09:06:47;100498.88;;;4.38;100.00
60170;BME280;46042;49.444;6.862;2023-02-04T09:09:14;100509.22;;;4.48;100.00
60170;BME280;46042;49.444;6.862;2023-02-04T09:11:41;100496.91;;;4.59;100.00
60170;BME280;46042;49.444;6.862;2023-02-04T09:14:08;100505.44;;;4.74;100.00
60170;BME280;46042;49.444;6.862;2023-02-04T09:16:35;100503.53;;;4.87;100.00
60170;BME280;46042;49.444;6.862;2023-02-04T09:19:01;100504.81;;;5.22;100.00
60170;BME280;46042;49.444;6.862;2023-02-04T09:21:29;100508.72;;;5.55;100.00
60170;BME280;46042;49.444;6.862;2023-02-04T09:23:55;100510.13;;;6.30;100.00
60170;BME280;46042;49.444;6.862;2023-02-04T09:26:22;100511.22;;;6.65;100.00
60170;BME280;46042;49.444;6.862;2023-02-04T09:28:49;100509.94;;;6.87;100.00
60170;BME280;46042;49.444;6.862;2023-02-04T09:31:15;100508.50;;;6.70;100.00
60170;BME280;46042;49.444;6.862;2023-02-04T09:33:43;100505.09;;;7.10;100.00
60170;BME280;46042;49.444;6.862;2023-02-04T09:36:09;100508.88;;;7.36;100.00
60170;BME280;46042;49.444;6.862;2023-02-04T09:38:36;100507.03;;;7.78;100.00
60170;BME280;46042;49.444;6.862;2023-02-04T09:41:05;100511.69;;;7.66;91.78
60170;BME280;46042;49.444;6.862;2023-02-04T09:43:35;100512.88;;;8.59;95.01
60170;BME280;46042;49.444;6.862;2023-02-04T09:46:04;100512.06;;;9.18;95.32
60170;BME280;46042;49.444;6.862;2023-02-04T09:48:31;62137.28;;;-147.77;100.00
60170;BME280;46042;49.444;6.862;2023-02-04T09:51:05;62137.28;;;-147.77;100.00
60170;BME280;46042;49.444;6.862;2023-02-04T09:53:33;62137.28;;;-147.77;100.00
60170;BME280;46042;49.444;6.862;2023-02-04T09:56:01;62137.28;;;-147.77;100.00
60170;BME280;46042;49.444;6.862;2023-02-04T09:58:30;62137.28;;;-147.77;100.00
60170;BME280;46042;49.444;6.862;2023-02-04T10:01:04;62137.28;;;-147.77;100.00
60170;BME280;46042;49.444;6.862;2023-02-04T10:03:34;62137.28;;;-147.77;100.00
60170;BME280;46042;49.444;6.862;2023-02-04T10:06:01;62137.28;;;-147.77;100.00
60170;BME280;46042;49.444;6.862;2023-02-04T10:08:30;62137.28;;;-147.77;100.00
60170;BME280;46042;49.444;6.862;2023-02-04T10:10:58;62137.28;;;-147.77;100.00
60170;BME280;46042;49.444;6.862;2023-02-04T10:13:32;62137.28;;;-147.77;100.00
60170;BME280;46042;49.444;6.862;2023-02-04T10:16:00;62137.28;;;-147.77;100.00
60170;BME280;46042;49.444;6.862;2023-02-04T10:18:31;62137.28;;;-147.77;100.00
60170;BME280;46042;49.444;6.862;2023-02-04T10:21:19;62137.28;;;-147.77;100.00
60170;BME280;46042;49.444;6.862;2023-02-04T10:23:48;62137.28;;;-147.77;100.00
60170;BME280;46042;49.444;6.862;2023-02-04T10:26:16;62137.28;;;-147.77;100.00
60170;BME280;46042;49.444;6.862;2023-02-04T10:28:43;62137.28;;;-147.77;100.00
60170;BME280;46042;49.444;6.862;2023-02-04T10:31:37;62137.28;;;-147.77;100.00
60170;BME280;46042;49.444;6.862;2023-02-04T10:36:46;62137.28;;;-147.77;100.00
60170;BME280;46042;49.444;6.862;2023-02-04T10:39:16;62137.28;;;-147.77;100.00
60170;BME280;46042;49.444;6.862;2023-02-04T10:44:20;62137.28;;;-147.77;100.00
60170;BME280;46042;49.444;6.862;2023-02-04T10:47:04;62137.28;;;-147.77;100.00
60170;BME280;46042;49.444;6.862;2023-02-04T10:49:32;62137.28;;;-147.77;100.00
60170;BME280;46042;49.444;6.862;2023-02-04T10:51:59;62137.28;;;-147.77;100.00
60170;BME280;46042;49.444;6.862;2023-02-04T10:54:34;62137.28;;;-147.77;100.00
60170;BME280;46042;49.444;6.862;2023-02-04T10:57:16;62137.28;;;-147.77;100.00
60170;BME280;46042;49.444;6.862;2023-02-04T10:59:44;62137.28;;;-147.77;100.00
60170;BME280;46042;49.444;6.862;2023-02-04T11:02:31;62137.28;;;-147.77;100.00
60170;BME280;46042;49.444;6.862;2023-02-04T11:04:59;62137.28;;;-147.77;100.00
60170;BME280;46042;49.444;6.862;2023-02-04T11:07:26;62137.28;;;-147.77;100.00
60170;BME280;46042;49.444;6.862;2023-02-04T11:09:54;62137.28;;;-147.77;100.00
60170;BME280;46042;49.444;6.862;2023-02-04T11:12:41;62137.28;;;-147.77;100.00
60170;BME280;46042;49.444;6.862;2023-02-04T11:15:42;62137.28;;;-147.77;100.00
60170;BME280;46042;49.444;6.862;2023-02-04T11:20:50;62137.28;;;-147.77;100.00
60170;BME280;46042;49.444;6.862;2023-02-04T11:26:15;62137.28;;;-147.77;100.00
60170;BME280;46042;49.444;6.862;2023-02-04T11:31:38;62137.28;;;-147.77;100.00
60170;BME280;46042;49.444;6.862;2023-02-04T11:36:33;62137.28;;;-147.77;100.00
60170;BME280;46042;49.444;6.862;2023-02-04T11:39:10;62137.28;;;-147.77;100.00
60170;BME280;46042;49.444;6.862;2023-02-04T11:41:43;62137.28;;;-147.77;100.00
60170;BME280;46042;49.444;6.862;2023-02-04T11:44:11;62137.28;;;-147.77;100.00
60170;BME280;46042;49.444;6.862;2023-02-04T11:46:38;62137.28;;;-147.77;100.00
60170;BME280;46042;49.444;6.862;2023-02-04T11:49:15;62137.28;;;-147.77;100.00
60170;BME280;46042;49.444;6.862;2023-02-04T11:51:43;62137.28;;;-147.77;100.00
60170;BME280;46042;49.444;6.862;2023-02-04T11:54:13;62137.28;;;-147.77;100.00
60170;BME280;46042;49.444;6.862;2023-02-04T11:56:42;62137.28;;;-147.77;100.00
60170;BME280;46042;49.444;6.862;2023-02-04T11:59:10;62137.28;;;-147.77;100.00
60170;BME280;46042;49.444;6.862;2023-02-04T12:01:37;62137.28;;;-147.77;100.00
60170;BME280;46042;49.444;6.862;2023-02-04T12:04:07;62137.28;;;-147.77;100.00
60170;BME280;46042;49.444;6.862;2023-02-04T12:06:56;62137.28;;;-147.77;100.00
60170;BME280;46042;49.444;6.862;2023-02-04T12:09:26;62137.28;;;-147.77;100.00
60170;BME280;46042;49.444;6.862;2023-02-04T12:11:57;62137.28;;;-147.77;100.00
60170;BME280;46042;49.444;6.862;2023-02-04T12:14:32;62137.28;;;-147.77;100.00
60170;BME280;46042;49.444;6.862;2023-02-04T12:16:59;62137.28;;;-147.77;100.00
60170;BME280;46042;49.444;6.862;2023-02-04T12:19:26;62137.28;;;-147.77;100.00
60170;BME280;46042;49.444;6.862;2023-02-04T12:21:53;62137.28;;;-147.77;100.00
60170;BME280;46042;49.444;6.862;2023-02-04T12:24:21;62137.28;;;-147.77;100.00
60170;BME280;46042;49.444;6.862;2023-02-04T12:26:47;62137.28;;;-147.77;100.00
60170;BME280;46042;49.444;6.862;2023-02-04T12:29:14;62137.28;;;-147.77;100.00
60170;BME280;46042;49.444;6.862;2023-02-04T12:31:41;62137.28;;;-147.77;100.00
60170;BME280;46042;49.444;6.862;2023-02-04T12:34:07;62137.28;;;-147.77;100.00
60170;BME280;46042;49.444;6.862;2023-02-04T12:36:34;62137.28;;;-147.77;100.00
60170;BME280;46042;49.444;6.862;2023-02-04T12:39:01;62137.28;;;-147.77;100.00
60170;BME280;46042;49.444;6.862;2023-02-04T12:41:28;62137.28;;;-147.77;100.00
60170;BME280;46042;49.444;6.862;2023-02-04T12:43:55;62137.28;;;-147.77;100.00
60170;BME280;46042;49.444;6.862;2023-02-04T12:46:22;62137.28;;;-147.77;100.00
60170;BME280;46042;49.444;6.862;2023-02-04T12:48:49;62137.28;;;-147.77;100.00
60170;BME280;46042;49.444;6.862;2023-02-04T12:51:16;62137.28;;;-147.77;100.00
60170;BME280;46042;49.444;6.862;2023-02-04T12:53:42;62137.28;;;-147.77;100.00
60170;BME280;46042;49.444;6.862;2023-02-04T12:56:09;62137.28;;;-147.77;100.00
60170;BME280;46042;49.444;6.862;2023-02-04T12:58:36;62137.28;;;-147.77;100.00
60170;BME280;46042;49.444;6.862;2023-02-04T13:01:02;62137.28;;;-147.77;100.00
60170;BME280;46042;49.444;6.862;2023-02-04T13:03:30;62137.28;;;-147.77;100.00
60170;BME280;46042;49.444;6.862;2023-02-04T13:05:57;62137.28;;;-147.77;100.00
60170;BME280;46042;49.444;6.862;2023-02-04T13:08:24;62137.28;;;-147.77;100.00